NOZ28V ENBR-EPKK
Flight info
| Callsign | NOZ28V |
|---|---|
| Flight time | 2h 6m |
| Altitude | 35000 |
| Route | TUXIL DCT ZOL DCT PEVEB DCT SONAL DCT BINKA DCT NUDRO DCT MOFKE |
| Aircraft | B738/M-SDE2E3FGHIRWXY/LB1 |
Departure
| Time | 2026-05-05 06:47 |
|---|---|
| Airport | Bergen Airport, Flesland (ENBR) |
Arrival
| Time | 2026-05-05 08:53 |
|---|---|
| Airport | Kraków John Paul II International Airport (EPKK) |
| Time | Latitude | Longitude | Altitude | Speed | Heading |
|---|---|---|---|---|---|
| 2026-05-05 06:17 | 60.28740 | 5.22904 | 172 ft | 0 kts | 80° |
| 2026-05-05 06:36 | 60.28737 | 5.22862 | 172 ft | 4 kts | 80° |
| 2026-05-05 06:37 | 60.28732 | 5.22808 | 172 ft | 4 kts | 80° |
| 2026-05-05 06:37 | 60.28731 | 5.22797 | 172 ft | 0 kts | 80° |
| 2026-05-05 06:39 | 60.28731 | 5.22800 | 172 ft | 1 kts | 95° |
| 2026-05-05 06:39 | 60.28723 | 5.22801 | 172 ft | 2 kts | 188° |
| 2026-05-05 06:40 | 60.28721 | 5.22746 | 170 ft | 7 kts | 272° |
| 2026-05-05 06:40 | 60.28714 | 5.22592 | 167 ft | 15 kts | 260° |
| 2026-05-05 06:40 | 60.28688 | 5.22419 | 164 ft | 11 kts | 264° |
| 2026-05-05 06:40 | 60.28740 | 5.22340 | 162 ft | 10 kts | 349° |
| 2026-05-05 06:41 | 60.28805 | 5.22318 | 161 ft | 10 kts | 350° |
| 2026-05-05 06:41 | 60.28874 | 5.22293 | 161 ft | 11 kts | 351° |
| 2026-05-05 06:41 | 60.28957 | 5.22264 | 161 ft | 13 kts | 350° |
| 2026-05-05 06:41 | 60.29043 | 5.22237 | 161 ft | 12 kts | 351° |
| 2026-05-05 06:42 | 60.29128 | 5.22209 | 162 ft | 12 kts | 350° |
| 2026-05-05 06:42 | 60.29210 | 5.22182 | 162 ft | 12 kts | 351° |
| 2026-05-05 06:42 | 60.29302 | 5.22152 | 161 ft | 15 kts | 350° |
| 2026-05-05 06:42 | 60.29418 | 5.22112 | 156 ft | 19 kts | 350° |
| 2026-05-05 06:43 | 60.29544 | 5.22070 | 152 ft | 19 kts | 350° |
| 2026-05-05 06:43 | 60.29679 | 5.22024 | 147 ft | 20 kts | 351° |
| 2026-05-05 06:43 | 60.29813 | 5.21979 | 148 ft | 19 kts | 350° |
| 2026-05-05 06:43 | 60.29942 | 5.21935 | 154 ft | 19 kts | 350° |
| 2026-05-05 06:44 | 60.30068 | 5.21893 | 159 ft | 18 kts | 351° |
| 2026-05-05 06:44 | 60.30190 | 5.21854 | 163 ft | 18 kts | 351° |
| 2026-05-05 06:44 | 60.30320 | 5.21809 | 168 ft | 19 kts | 351° |
| 2026-05-05 06:44 | 60.30447 | 5.21765 | 173 ft | 18 kts | 350° |
| 2026-05-05 06:45 | 60.30570 | 5.21726 | 178 ft | 18 kts | 350° |
| 2026-05-05 06:45 | 60.30658 | 5.21654 | 181 ft | 13 kts | 302° |
| 2026-05-05 06:45 | 60.30654 | 5.21480 | 183 ft | 11 kts | 255° |
| 2026-05-05 06:45 | 60.30595 | 5.21399 | 181 ft | 12 kts | 173° |
| 2026-05-05 06:46 | 60.30499 | 5.21427 | 174 ft | 18 kts | 171° |
| 2026-05-05 06:46 | 60.30133 | 5.21551 | 160 ft | 90 kts | 170° |
| 2026-05-05 06:46 | 60.29303 | 5.21830 | 155 ft | 150 kts | 170° |
| 2026-05-05 06:46 | 60.28200 | 5.22193 | 584 ft | 168 kts | 174° |
| 2026-05-05 06:47 | 60.26995 | 5.22426 | 1230 ft | 179 kts | 171° |
| 2026-05-05 06:47 | 60.25763 | 5.22833 | 1950 ft | 184 kts | 169° |
| 2026-05-05 06:47 | 60.24488 | 5.23274 | 2701 ft | 188 kts | 170° |
| 2026-05-05 06:47 | 60.23195 | 5.23723 | 3443 ft | 193 kts | 170° |
| 2026-05-05 06:48 | 60.21787 | 5.24208 | 3678 ft | 218 kts | 171° |
| 2026-05-05 06:48 | 60.20234 | 5.24746 | 4054 ft | 233 kts | 171° |
| 2026-05-05 06:48 | 60.18569 | 5.25318 | 4358 ft | 254 kts | 171° |
| 2026-05-05 06:48 | 60.16793 | 5.25922 | 5102 ft | 260 kts | 171° |
| 2026-05-05 06:49 | 60.15005 | 5.26540 | 5970 ft | 262 kts | 171° |
| 2026-05-05 06:49 | 60.13206 | 5.27162 | 6768 ft | 264 kts | 172° |
| 2026-05-05 06:49 | 60.11399 | 5.27782 | 7476 ft | 270 kts | 172° |
| 2026-05-05 06:49 | 60.09529 | 5.28408 | 8220 ft | 275 kts | 172° |
| 2026-05-05 06:50 | 60.07627 | 5.28992 | 8967 ft | 279 kts | 174° |
| 2026-05-05 06:50 | 60.05688 | 5.29509 | 9683 ft | 284 kts | 175° |
| 2026-05-05 06:50 | 60.03710 | 5.30022 | 10295 ft | 292 kts | 175° |
| 2026-05-05 06:50 | 60.01614 | 5.30568 | 10505 ft | 316 kts | 178° |
| 2026-05-05 06:51 | 59.99361 | 5.31115 | 10775 ft | 335 kts | 177° |
| 2026-05-05 06:51 | 59.97042 | 5.31729 | 11298 ft | 345 kts | 177° |
| 2026-05-05 06:51 | 59.94643 | 5.32385 | 11971 ft | 350 kts | 178° |
| 2026-05-05 06:51 | 59.92221 | 5.33046 | 12684 ft | 353 kts | 179° |
| 2026-05-05 06:52 | 59.89768 | 5.33718 | 13410 ft | 356 kts | 179° |
| 2026-05-05 06:52 | 59.87308 | 5.34359 | 14160 ft | 357 kts | 181° |
| 2026-05-05 06:52 | 59.84838 | 5.35010 | 14898 ft | 359 kts | 181° |
| 2026-05-05 06:52 | 59.82361 | 5.35677 | 15610 ft | 361 kts | 182° |
| 2026-05-05 06:53 | 59.79868 | 5.36342 | 16317 ft | 362 kts | 182° |
| 2026-05-05 06:53 | 59.77397 | 5.36851 | 16991 ft | 361 kts | 186° |
| 2026-05-05 06:53 | 59.74894 | 5.37234 | 17652 ft | 361 kts | 187° |
| 2026-05-05 06:53 | 59.72378 | 5.37595 | 18279 ft | 364 kts | 187° |
| 2026-05-05 06:54 | 59.69852 | 5.37983 | 18862 ft | 367 kts | 187° |
| 2026-05-05 06:54 | 59.67295 | 5.38394 | 19409 ft | 370 kts | 187° |
| 2026-05-05 06:54 | 59.64716 | 5.38816 | 19951 ft | 374 kts | 187° |
| 2026-05-05 06:54 | 59.62114 | 5.39366 | 20523 ft | 378 kts | 185° |
| 2026-05-05 06:55 | 59.59488 | 5.40041 | 21011 ft | 383 kts | 184° |
| 2026-05-05 06:55 | 59.56862 | 5.40746 | 21452 ft | 387 kts | 184° |
| 2026-05-05 06:55 | 59.54185 | 5.41459 | 21940 ft | 390 kts | 184° |
| 2026-05-05 06:55 | 59.51484 | 5.42164 | 22432 ft | 392 kts | 185° |
| 2026-05-05 06:56 | 59.48767 | 5.42861 | 22898 ft | 395 kts | 185° |
| 2026-05-05 06:56 | 59.46040 | 5.43554 | 23403 ft | 396 kts | 185° |
| 2026-05-05 06:56 | 59.43299 | 5.44243 | 23872 ft | 399 kts | 185° |
| 2026-05-05 06:56 | 59.40528 | 5.44936 | 24244 ft | 403 kts | 185° |
| 2026-05-05 06:57 | 59.37729 | 5.45778 | 24629 ft | 410 kts | 182° |
| 2026-05-05 06:57 | 59.34941 | 5.46778 | 25032 ft | 414 kts | 181° |
| 2026-05-05 06:57 | 59.32106 | 5.47852 | 25447 ft | 417 kts | 180° |
| 2026-05-05 06:57 | 59.29246 | 5.48940 | 25824 ft | 420 kts | 180° |
| 2026-05-05 06:58 | 59.26368 | 5.50021 | 26183 ft | 423 kts | 180° |
| 2026-05-05 06:58 | 59.23471 | 5.51095 | 26555 ft | 425 kts | 180° |
| 2026-05-05 06:58 | 59.20559 | 5.52160 | 26912 ft | 427 kts | 180° |
| 2026-05-05 06:58 | 59.17632 | 5.53222 | 27254 ft | 429 kts | 180° |
| 2026-05-05 06:59 | 59.14685 | 5.54282 | 27542 ft | 432 kts | 180° |
| 2026-05-05 06:59 | 59.11718 | 5.55347 | 27857 ft | 435 kts | 180° |
| 2026-05-05 06:59 | 59.08780 | 5.56402 | 28184 ft | 436 kts | 180° |
| 2026-05-05 06:59 | 59.05788 | 5.57475 | 28492 ft | 438 kts | 180° |
| 2026-05-05 07:00 | 59.02783 | 5.58553 | 28812 ft | 440 kts | 180° |
| 2026-05-05 07:00 | 58.99763 | 5.59634 | 29091 ft | 443 kts | 180° |
| 2026-05-05 07:00 | 58.96722 | 5.60720 | 29340 ft | 445 kts | 180° |
| 2026-05-05 07:00 | 58.93669 | 5.61806 | 29595 ft | 447 kts | 179° |
| 2026-05-05 07:01 | 58.90607 | 5.63064 | 29855 ft | 458 kts | 171° |
| 2026-05-05 07:01 | 58.87671 | 5.65832 | 30077 ft | 483 kts | 152° |
| 2026-05-05 07:01 | 58.85243 | 5.70355 | 30344 ft | 504 kts | 132° |
| 2026-05-05 07:01 | 58.83357 | 5.76109 | 30681 ft | 508 kts | 126° |
| 2026-05-05 07:02 | 58.81571 | 5.81999 | 30980 ft | 509 kts | 125° |
| 2026-05-05 07:02 | 58.79791 | 5.87897 | 31298 ft | 508 kts | 126° |
| 2026-05-05 07:02 | 58.77996 | 5.93755 | 31689 ft | 505 kts | 126° |
| 2026-05-05 07:02 | 58.76190 | 5.99534 | 32120 ft | 502 kts | 126° |
| 2026-05-05 07:03 | 58.74377 | 6.05240 | 32476 ft | 499 kts | 127° |
| 2026-05-05 07:03 | 58.72553 | 6.10918 | 32813 ft | 497 kts | 127° |
| 2026-05-05 07:03 | 58.70752 | 6.16489 | 33094 ft | 497 kts | 127° |
| 2026-05-05 07:03 | 58.68922 | 6.22130 | 33346 ft | 497 kts | 127° |
| 2026-05-05 07:04 | 58.67097 | 6.27748 | 33641 ft | 496 kts | 127° |
| 2026-05-05 07:04 | 58.65271 | 6.33364 | 33965 ft | 494 kts | 127° |
| 2026-05-05 07:04 | 58.63456 | 6.38944 | 34286 ft | 492 kts | 127° |
| 2026-05-05 07:04 | 58.61642 | 6.44505 | 34507 ft | 493 kts | 127° |
| 2026-05-05 07:05 | 58.59822 | 6.50071 | 34748 ft | 492 kts | 127° |
| 2026-05-05 07:05 | 58.58026 | 6.55551 | 34993 ft | 492 kts | 127° |
| 2026-05-05 07:05 | 58.56193 | 6.61127 | 34966 ft | 497 kts | 127° |
| 2026-05-05 07:06 | 58.52504 | 6.72324 | 34978 ft | 496 kts | 127° |
| 2026-05-05 07:06 | 58.48648 | 6.83060 | 34965 ft | 481 kts | 139° |
| 2026-05-05 07:07 | 58.43929 | 6.92012 | 34969 ft | 478 kts | 142° |
| 2026-05-05 07:07 | 58.39166 | 7.00755 | 34974 ft | 479 kts | 142° |
| 2026-05-05 07:08 | 58.34379 | 7.09620 | 34973 ft | 480 kts | 142° |
| 2026-05-05 07:08 | 58.29603 | 7.18515 | 34973 ft | 481 kts | 142° |
| 2026-05-05 07:09 | 58.24825 | 7.27413 | 34968 ft | 481 kts | 142° |
| 2026-05-05 07:09 | 58.20077 | 7.36220 | 34975 ft | 480 kts | 142° |
| 2026-05-05 07:10 | 58.15293 | 7.45049 | 34966 ft | 480 kts | 142° |
| 2026-05-05 07:10 | 58.10517 | 7.53824 | 34972 ft | 478 kts | 142° |
| 2026-05-05 07:11 | 58.05746 | 7.62557 | 34968 ft | 477 kts | 142° |
| 2026-05-05 07:11 | 58.01005 | 7.71199 | 34969 ft | 476 kts | 142° |
| 2026-05-05 07:12 | 57.96245 | 7.79845 | 34973 ft | 474 kts | 142° |
| 2026-05-05 07:12 | 57.91494 | 7.88446 | 34967 ft | 473 kts | 142° |
| 2026-05-05 07:13 | 57.86755 | 7.96989 | 34973 ft | 472 kts | 143° |
| 2026-05-05 07:13 | 57.82010 | 8.05502 | 34973 ft | 472 kts | 143° |
| 2026-05-05 07:14 | 57.77295 | 8.13933 | 34972 ft | 471 kts | 143° |
| 2026-05-05 07:14 | 57.72548 | 8.22400 | 34964 ft | 472 kts | 143° |
| 2026-05-05 07:15 | 57.67789 | 8.30844 | 34966 ft | 472 kts | 143° |
| 2026-05-05 07:15 | 57.63014 | 8.39281 | 34964 ft | 473 kts | 143° |
| 2026-05-05 07:16 | 57.58259 | 8.47654 | 34964 ft | 473 kts | 143° |
| 2026-05-05 07:16 | 57.53466 | 8.56066 | 34965 ft | 474 kts | 143° |
| 2026-05-05 07:17 | 57.48661 | 8.64473 | 34964 ft | 474 kts | 143° |
| 2026-05-05 07:17 | 57.43849 | 8.72854 | 34963 ft | 474 kts | 143° |
| 2026-05-05 07:18 | 57.39075 | 8.81135 | 34961 ft | 472 kts | 143° |
| 2026-05-05 07:18 | 57.34275 | 8.89432 | 34961 ft | 471 kts | 143° |
| 2026-05-05 07:19 | 57.29492 | 8.97670 | 34962 ft | 469 kts | 143° |
| 2026-05-05 07:19 | 57.24717 | 9.05863 | 34970 ft | 468 kts | 143° |
| 2026-05-05 07:20 | 57.19979 | 9.13962 | 34961 ft | 467 kts | 143° |
| 2026-05-05 07:20 | 57.15223 | 9.22062 | 34963 ft | 465 kts | 143° |
| 2026-05-05 07:21 | 57.10474 | 9.30116 | 34963 ft | 464 kts | 143° |
| 2026-05-05 07:21 | 57.05692 | 9.38194 | 34976 ft | 471 kts | 143° |
| 2026-05-05 07:22 | 57.00828 | 9.46380 | 34970 ft | 477 kts | 143° |
| 2026-05-05 07:22 | 56.95955 | 9.54559 | 34963 ft | 479 kts | 143° |
| 2026-05-05 07:23 | 56.91038 | 9.62786 | 34963 ft | 479 kts | 143° |
| 2026-05-05 07:23 | 56.86120 | 9.70986 | 34961 ft | 478 kts | 142° |
| 2026-05-05 07:24 | 56.81206 | 9.79144 | 34960 ft | 476 kts | 143° |
| 2026-05-05 07:24 | 56.76341 | 9.87189 | 34960 ft | 474 kts | 143° |
| 2026-05-05 07:25 | 56.71462 | 9.95227 | 34959 ft | 472 kts | 142° |
| 2026-05-05 07:25 | 56.66608 | 10.03196 | 34961 ft | 469 kts | 143° |
| 2026-05-05 07:26 | 56.61768 | 10.11114 | 34963 ft | 467 kts | 143° |
| 2026-05-05 07:26 | 56.56942 | 10.18976 | 34963 ft | 466 kts | 143° |
| 2026-05-05 07:27 | 56.52156 | 10.26743 | 34966 ft | 464 kts | 143° |
| 2026-05-05 07:27 | 56.47341 | 10.34535 | 34962 ft | 464 kts | 143° |
| 2026-05-05 07:28 | 56.42515 | 10.42315 | 34967 ft | 465 kts | 143° |
| 2026-05-05 07:28 | 56.37682 | 10.50080 | 34965 ft | 466 kts | 143° |
| 2026-05-05 07:29 | 56.32830 | 10.57848 | 34962 ft | 467 kts | 143° |
| 2026-05-05 07:29 | 56.27968 | 10.65605 | 34962 ft | 467 kts | 143° |
| 2026-05-05 07:30 | 56.23123 | 10.73309 | 34965 ft | 468 kts | 143° |
| 2026-05-05 07:30 | 56.15780 | 10.84929 | 34966 ft | 470 kts | 143° |
| 2026-05-05 07:31 | 56.10870 | 10.92667 | 34964 ft | 470 kts | 143° |
| 2026-05-05 07:31 | 56.05953 | 11.00388 | 34964 ft | 470 kts | 144° |
| 2026-05-05 07:32 | 56.01066 | 11.08034 | 34972 ft | 470 kts | 144° |
| 2026-05-05 07:32 | 55.96146 | 11.15708 | 34980 ft | 469 kts | 144° |
| 2026-05-05 07:33 | 55.91234 | 11.23345 | 34968 ft | 468 kts | 144° |
| 2026-05-05 07:33 | 55.86328 | 11.30939 | 34970 ft | 466 kts | 144° |
| 2026-05-05 07:34 | 55.81436 | 11.38488 | 34972 ft | 464 kts | 144° |
| 2026-05-05 07:34 | 55.76591 | 11.45939 | 34968 ft | 463 kts | 144° |
| 2026-05-05 07:35 | 55.71719 | 11.53399 | 34971 ft | 462 kts | 144° |
| 2026-05-05 07:35 | 55.66848 | 11.60839 | 34973 ft | 462 kts | 144° |
| 2026-05-05 07:36 | 55.61972 | 11.68261 | 34974 ft | 462 kts | 144° |
| 2026-05-05 07:36 | 55.57088 | 11.75668 | 34971 ft | 463 kts | 144° |
| 2026-05-05 07:37 | 55.52230 | 11.83010 | 34973 ft | 463 kts | 144° |
| 2026-05-05 07:37 | 55.47328 | 11.90395 | 34969 ft | 464 kts | 144° |
| 2026-05-05 07:38 | 55.42412 | 11.97777 | 34963 ft | 465 kts | 144° |
| 2026-05-05 07:38 | 55.37485 | 12.05151 | 34965 ft | 465 kts | 145° |
| 2026-05-05 07:39 | 55.32588 | 12.12455 | 34965 ft | 465 kts | 145° |
| 2026-05-05 07:39 | 55.27655 | 12.19787 | 34961 ft | 464 kts | 145° |
| 2026-05-05 07:40 | 55.22723 | 12.27093 | 34964 ft | 464 kts | 145° |
| 2026-05-05 07:40 | 55.17796 | 12.34368 | 34963 ft | 463 kts | 145° |
| 2026-05-05 07:41 | 55.12866 | 12.41621 | 34962 ft | 462 kts | 146° |
| 2026-05-05 07:41 | 55.07981 | 12.48788 | 34964 ft | 461 kts | 146° |
| 2026-05-05 07:42 | 55.03077 | 12.55958 | 34962 ft | 460 kts | 146° |
| 2026-05-05 07:42 | 54.99000 | 12.61898 | 34963 ft | 459 kts | 146° |
| 2026-05-05 07:43 | 54.94107 | 12.69008 | 34962 ft | 458 kts | 146° |
| 2026-05-05 07:43 | 54.88418 | 12.77249 | 34958 ft | 457 kts | 146° |
| 2026-05-05 07:44 | 54.84291 | 12.83080 | 34954 ft | 456 kts | 147° |
| 2026-05-05 07:44 | 54.78505 | 12.91003 | 34940 ft | 456 kts | 148° |
| 2026-05-05 07:45 | 54.74371 | 12.96646 | 34946 ft | 456 kts | 148° |
| 2026-05-05 07:45 | 54.68596 | 13.04540 | 34946 ft | 455 kts | 148° |
| 2026-05-05 07:46 | 54.64428 | 13.10228 | 34941 ft | 456 kts | 148° |
| 2026-05-05 07:46 | 54.59488 | 13.16951 | 34948 ft | 456 kts | 148° |
| 2026-05-05 07:47 | 54.54506 | 13.23710 | 34944 ft | 456 kts | 148° |
| 2026-05-05 07:47 | 54.49519 | 13.30454 | 34940 ft | 456 kts | 148° |
| 2026-05-05 07:48 | 54.44529 | 13.37183 | 34950 ft | 456 kts | 148° |
| 2026-05-05 07:48 | 54.39561 | 13.43859 | 34935 ft | 456 kts | 148° |
| 2026-05-05 07:49 | 54.34561 | 13.50559 | 34933 ft | 456 kts | 148° |
| 2026-05-05 07:49 | 54.29562 | 13.57233 | 34936 ft | 456 kts | 148° |
| 2026-05-05 07:50 | 54.24557 | 13.63892 | 34934 ft | 455 kts | 148° |
| 2026-05-05 07:50 | 54.19591 | 13.70483 | 34939 ft | 455 kts | 148° |
| 2026-05-05 07:51 | 54.14595 | 13.77095 | 34939 ft | 454 kts | 149° |
| 2026-05-05 07:51 | 54.09601 | 13.83681 | 34935 ft | 453 kts | 149° |
| 2026-05-05 07:52 | 54.04609 | 13.90244 | 34938 ft | 453 kts | 149° |
| 2026-05-05 07:52 | 53.99659 | 13.96731 | 34931 ft | 452 kts | 149° |
| 2026-05-05 07:53 | 53.94673 | 14.03246 | 34933 ft | 452 kts | 149° |
| 2026-05-05 07:53 | 53.89688 | 14.09738 | 34939 ft | 452 kts | 149° |
| 2026-05-05 07:54 | 53.84696 | 14.16221 | 34938 ft | 452 kts | 149° |
| 2026-05-05 07:54 | 53.79707 | 14.22682 | 34939 ft | 452 kts | 149° |
| 2026-05-05 07:55 | 53.74743 | 14.29083 | 34932 ft | 452 kts | 149° |
| 2026-05-05 07:55 | 53.69714 | 14.35446 | 34935 ft | 452 kts | 149° |
| 2026-05-05 07:56 | 53.64667 | 14.41784 | 34942 ft | 452 kts | 149° |
| 2026-05-05 07:56 | 53.59618 | 14.48116 | 34933 ft | 453 kts | 149° |
| 2026-05-05 07:57 | 53.54597 | 14.54403 | 34938 ft | 453 kts | 149° |
| 2026-05-05 07:57 | 53.49533 | 14.60729 | 34936 ft | 454 kts | 149° |
| 2026-05-05 07:58 | 53.44463 | 14.67041 | 34933 ft | 454 kts | 149° |
| 2026-05-05 07:58 | 53.39385 | 14.73342 | 34937 ft | 455 kts | 149° |
| 2026-05-05 07:59 | 53.34294 | 14.79645 | 34938 ft | 455 kts | 149° |
| 2026-05-05 07:59 | 53.29233 | 14.85887 | 34931 ft | 455 kts | 149° |
| 2026-05-05 08:00 | 53.24128 | 14.92167 | 34937 ft | 456 kts | 149° |
| 2026-05-05 08:00 | 53.19022 | 14.98430 | 34938 ft | 456 kts | 149° |
| 2026-05-05 08:01 | 53.13901 | 15.04691 | 34931 ft | 457 kts | 149° |
| 2026-05-05 08:01 | 53.08811 | 15.10898 | 34937 ft | 456 kts | 149° |
| 2026-05-05 08:02 | 53.03686 | 15.17125 | 34928 ft | 456 kts | 149° |
| 2026-05-05 08:02 | 52.98560 | 15.23336 | 34930 ft | 456 kts | 149° |
| 2026-05-05 08:03 | 52.93430 | 15.29535 | 34922 ft | 456 kts | 149° |
| 2026-05-05 08:03 | 52.88299 | 15.35715 | 34917 ft | 456 kts | 149° |
| 2026-05-05 08:04 | 52.83211 | 15.41828 | 34915 ft | 455 kts | 149° |
| 2026-05-05 08:04 | 52.78081 | 15.47967 | 34912 ft | 455 kts | 149° |
| 2026-05-05 08:05 | 52.72952 | 15.54090 | 34907 ft | 455 kts | 149° |
| 2026-05-05 08:05 | 52.67827 | 15.60190 | 34908 ft | 455 kts | 149° |
| 2026-05-05 08:06 | 52.62695 | 15.66280 | 34903 ft | 455 kts | 149° |
| 2026-05-05 08:06 | 52.57595 | 15.72316 | 34894 ft | 455 kts | 149° |
| 2026-05-05 08:07 | 52.52459 | 15.78375 | 34900 ft | 454 kts | 149° |
| 2026-05-05 08:07 | 52.47313 | 15.84425 | 34897 ft | 455 kts | 149° |
| 2026-05-05 08:08 | 52.42166 | 15.90460 | 34889 ft | 455 kts | 149° |
| 2026-05-05 08:08 | 52.37016 | 15.96483 | 34890 ft | 455 kts | 149° |
| 2026-05-05 08:09 | 52.31893 | 16.02456 | 34890 ft | 455 kts | 149° |
| 2026-05-05 08:09 | 52.26732 | 16.08456 | 34890 ft | 455 kts | 149° |
| 2026-05-05 08:10 | 52.21573 | 16.14436 | 34889 ft | 455 kts | 149° |
| 2026-05-05 08:10 | 52.16409 | 16.20405 | 34889 ft | 455 kts | 149° |
| 2026-05-05 08:11 | 52.11272 | 16.26325 | 34888 ft | 455 kts | 149° |
| 2026-05-05 08:11 | 52.06103 | 16.32267 | 34883 ft | 455 kts | 149° |
| 2026-05-05 08:12 | 52.00930 | 16.38192 | 34880 ft | 455 kts | 149° |
| 2026-05-05 08:12 | 51.95756 | 16.44107 | 34879 ft | 455 kts | 149° |
| 2026-05-05 08:13 | 51.90615 | 16.49963 | 34880 ft | 455 kts | 149° |
| 2026-05-05 08:13 | 51.85435 | 16.55846 | 34880 ft | 455 kts | 149° |
| 2026-05-05 08:14 | 51.80246 | 16.61724 | 34876 ft | 455 kts | 149° |
| 2026-05-05 08:14 | 51.75060 | 16.67582 | 34879 ft | 455 kts | 149° |
| 2026-05-05 08:15 | 51.69901 | 16.73392 | 34874 ft | 456 kts | 149° |
| 2026-05-05 08:15 | 51.64702 | 16.79231 | 34870 ft | 456 kts | 149° |
| 2026-05-05 08:16 | 51.59490 | 16.85069 | 34872 ft | 456 kts | 149° |
| 2026-05-05 08:16 | 51.54277 | 16.90892 | 34869 ft | 457 kts | 149° |
| 2026-05-05 08:17 | 51.49059 | 16.96704 | 34866 ft | 457 kts | 149° |
| 2026-05-05 08:17 | 51.43868 | 17.02468 | 34861 ft | 457 kts | 149° |
| 2026-05-05 08:18 | 51.38643 | 17.08251 | 34860 ft | 457 kts | 149° |
| 2026-05-05 08:18 | 51.33412 | 17.14029 | 34862 ft | 457 kts | 149° |
| 2026-05-05 08:19 | 51.28181 | 17.19791 | 34860 ft | 457 kts | 149° |
| 2026-05-05 08:19 | 51.22978 | 17.25505 | 34859 ft | 457 kts | 149° |
| 2026-05-05 08:20 | 51.17738 | 17.31245 | 34861 ft | 457 kts | 149° |
| 2026-05-05 08:20 | 51.12568 | 17.37149 | 34861 ft | 458 kts | 146° |
| 2026-05-05 08:21 | 51.07522 | 17.43364 | 34862 ft | 459 kts | 145° |
| 2026-05-05 08:21 | 51.02505 | 17.49526 | 34862 ft | 459 kts | 146° |
| 2026-05-05 08:22 | 50.97418 | 17.55685 | 34447 ft | 465 kts | 146° |
| 2026-05-05 08:22 | 50.94841 | 17.58783 | 33873 ft | 464 kts | 146° |
| 2026-05-05 08:22 | 50.92265 | 17.61877 | 33207 ft | 464 kts | 146° |
| 2026-05-05 08:23 | 50.89694 | 17.64961 | 32523 ft | 464 kts | 146° |
| 2026-05-05 08:23 | 50.87116 | 17.68046 | 31808 ft | 465 kts | 146° |
| 2026-05-05 08:23 | 50.84534 | 17.71134 | 31082 ft | 466 kts | 145° |
| 2026-05-05 08:23 | 50.81943 | 17.74229 | 30333 ft | 466 kts | 145° |
| 2026-05-05 08:24 | 50.79364 | 17.77305 | 29807 ft | 461 kts | 145° |
| 2026-05-05 08:24 | 50.76851 | 17.80299 | 29267 ft | 457 kts | 145° |
| 2026-05-05 08:24 | 50.74323 | 17.83307 | 28722 ft | 452 kts | 145° |
| 2026-05-05 08:24 | 50.71824 | 17.86276 | 28184 ft | 448 kts | 145° |
| 2026-05-05 08:25 | 50.69348 | 17.89213 | 27652 ft | 443 kts | 145° |
| 2026-05-05 08:25 | 50.66898 | 17.92116 | 27125 ft | 439 kts | 145° |
| 2026-05-05 08:25 | 50.64468 | 17.94992 | 26599 ft | 435 kts | 145° |
| 2026-05-05 08:25 | 50.62062 | 17.97848 | 26076 ft | 431 kts | 143° |
| 2026-05-05 08:26 | 50.60023 | 18.01287 | 25524 ft | 432 kts | 123° |
| 2026-05-05 08:26 | 50.58771 | 18.05557 | 25084 ft | 429 kts | 107° |
| 2026-05-05 08:26 | 50.58311 | 18.10112 | 24596 ft | 427 kts | 94° |
| 2026-05-05 08:26 | 50.58194 | 18.14761 | 24098 ft | 424 kts | 93° |
| 2026-05-05 08:27 | 50.58105 | 18.19379 | 23582 ft | 421 kts | 93° |
| 2026-05-05 08:27 | 50.58006 | 18.23958 | 23081 ft | 418 kts | 93° |
| 2026-05-05 08:27 | 50.57886 | 18.28503 | 22576 ft | 414 kts | 94° |
| 2026-05-05 08:27 | 50.57750 | 18.33015 | 22076 ft | 411 kts | 94° |
| 2026-05-05 08:28 | 50.57608 | 18.37491 | 21574 ft | 408 kts | 94° |
| 2026-05-05 08:28 | 50.57463 | 18.41938 | 21093 ft | 406 kts | 94° |
| 2026-05-05 08:28 | 50.57318 | 18.46269 | 20939 ft | 397 kts | 94° |
| 2026-05-05 08:28 | 50.57161 | 18.50578 | 20897 ft | 391 kts | 95° |
| 2026-05-05 08:29 | 50.57002 | 18.54787 | 20885 ft | 378 kts | 95° |
| 2026-05-05 08:29 | 50.56848 | 18.58846 | 20889 ft | 365 kts | 95° |
| 2026-05-05 08:29 | 50.56700 | 18.62760 | 20885 ft | 352 kts | 95° |
| 2026-05-05 08:30 | 50.56417 | 18.70148 | 20887 ft | 326 kts | 95° |
| 2026-05-05 08:30 | 50.56315 | 18.73635 | 20888 ft | 313 kts | 92° |
| 2026-05-05 08:30 | 50.56318 | 18.76988 | 20884 ft | 301 kts | 91° |
| 2026-05-05 08:30 | 50.56347 | 18.80175 | 20889 ft | 291 kts | 91° |
| 2026-05-05 08:31 | 50.56377 | 18.83361 | 20907 ft | 294 kts | 91° |
| 2026-05-05 08:31 | 50.56401 | 18.86640 | 20935 ft | 304 kts | 91° |
| 2026-05-05 08:31 | 50.56422 | 18.89989 | 20915 ft | 308 kts | 91° |
| 2026-05-05 08:31 | 50.56439 | 18.93346 | 20900 ft | 305 kts | 91° |
| 2026-05-05 08:32 | 50.56452 | 18.96670 | 20898 ft | 303 kts | 91° |
| 2026-05-05 08:32 | 50.56464 | 18.99964 | 20900 ft | 301 kts | 91° |
| 2026-05-05 08:32 | 50.56474 | 19.03200 | 20900 ft | 299 kts | 91° |
| 2026-05-05 08:32 | 50.56483 | 19.06462 | 20898 ft | 298 kts | 91° |
| 2026-05-05 08:33 | 50.56489 | 19.09710 | 20905 ft | 297 kts | 91° |
| 2026-05-05 08:33 | 50.56494 | 19.12967 | 20929 ft | 298 kts | 91° |
| 2026-05-05 08:33 | 50.56484 | 19.16238 | 20762 ft | 302 kts | 92° |
| 2026-05-05 08:33 | 50.56466 | 19.19615 | 20061 ft | 317 kts | 92° |
| 2026-05-05 08:34 | 50.56444 | 19.23206 | 19060 ft | 340 kts | 92° |
| 2026-05-05 08:34 | 50.56422 | 19.26985 | 18439 ft | 349 kts | 92° |
| 2026-05-05 08:34 | 50.56400 | 19.30806 | 18078 ft | 348 kts | 92° |
| 2026-05-05 08:34 | 50.56379 | 19.34596 | 17755 ft | 346 kts | 92° |
| 2026-05-05 08:35 | 50.56357 | 19.38365 | 17427 ft | 344 kts | 92° |
| 2026-05-05 08:35 | 50.56333 | 19.42065 | 17099 ft | 342 kts | 92° |
| 2026-05-05 08:35 | 50.56308 | 19.45781 | 16779 ft | 340 kts | 92° |
| 2026-05-05 08:35 | 50.56283 | 19.49493 | 16449 ft | 338 kts | 92° |
| 2026-05-05 08:36 | 50.56256 | 19.53183 | 16135 ft | 336 kts | 92° |
| 2026-05-05 08:36 | 50.56228 | 19.56845 | 15807 ft | 334 kts | 92° |
| 2026-05-05 08:36 | 50.56125 | 19.60474 | 15471 ft | 331 kts | 103° |
| 2026-05-05 08:36 | 50.55283 | 19.63771 | 15087 ft | 323 kts | 129° |
| 2026-05-05 08:37 | 50.53759 | 19.66281 | 14797 ft | 314 kts | 148° |
| 2026-05-05 08:37 | 50.51891 | 19.67967 | 14486 ft | 308 kts | 156° |
| 2026-05-05 08:37 | 50.49979 | 19.69454 | 14170 ft | 306 kts | 158° |
| 2026-05-05 08:37 | 50.48085 | 19.70895 | 13820 ft | 306 kts | 158° |
| 2026-05-05 08:38 | 50.46178 | 19.72354 | 13508 ft | 304 kts | 158° |
| 2026-05-05 08:38 | 50.44282 | 19.73813 | 13197 ft | 303 kts | 157° |
| 2026-05-05 08:38 | 50.42406 | 19.75266 | 12906 ft | 301 kts | 157° |
| 2026-05-05 08:38 | 50.40532 | 19.76725 | 12604 ft | 300 kts | 157° |
| 2026-05-05 08:39 | 50.38673 | 19.78174 | 12304 ft | 298 kts | 157° |
| 2026-05-05 08:39 | 50.36823 | 19.79618 | 11996 ft | 296 kts | 157° |
| 2026-05-05 08:39 | 50.34986 | 19.81051 | 11678 ft | 295 kts | 157° |
| 2026-05-05 08:39 | 50.33153 | 19.82479 | 11340 ft | 294 kts | 156° |
| 2026-05-05 08:40 | 50.31320 | 19.83905 | 11028 ft | 293 kts | 156° |
| 2026-05-05 08:40 | 50.29499 | 19.85326 | 10781 ft | 290 kts | 156° |
| 2026-05-05 08:40 | 50.27739 | 19.86701 | 10640 ft | 284 kts | 156° |
| 2026-05-05 08:40 | 50.25987 | 19.88068 | 10407 ft | 280 kts | 156° |
| 2026-05-05 08:41 | 50.24244 | 19.89427 | 10112 ft | 280 kts | 155° |
| 2026-05-05 08:41 | 50.22500 | 19.90785 | 9809 ft | 280 kts | 155° |
| 2026-05-05 08:41 | 50.20825 | 19.92320 | 9481 ft | 281 kts | 139° |
| 2026-05-05 08:41 | 50.19735 | 19.94833 | 9149 ft | 283 kts | 109° |
| 2026-05-05 08:42 | 50.19496 | 19.97856 | 8901 ft | 282 kts | 84° |
| 2026-05-05 08:42 | 50.19841 | 20.00821 | 8774 ft | 272 kts | 78° |
| 2026-05-05 08:42 | 50.20243 | 20.03640 | 8560 ft | 268 kts | 78° |
| 2026-05-05 08:42 | 50.20640 | 20.06430 | 8493 ft | 259 kts | 78° |
| 2026-05-05 08:43 | 50.21023 | 20.09145 | 8341 ft | 254 kts | 78° |
| 2026-05-05 08:43 | 50.21393 | 20.11835 | 8092 ft | 253 kts | 78° |
| 2026-05-05 08:43 | 50.21754 | 20.14512 | 7840 ft | 252 kts | 78° |
| 2026-05-05 08:43 | 50.22114 | 20.17185 | 7591 ft | 251 kts | 78° |
| 2026-05-05 08:44 | 50.22471 | 20.19841 | 7351 ft | 249 kts | 78° |
| 2026-05-05 08:44 | 50.22828 | 20.22485 | 7103 ft | 248 kts | 78° |
| 2026-05-05 08:44 | 50.23182 | 20.25120 | 6847 ft | 248 kts | 79° |
| 2026-05-05 08:44 | 50.23488 | 20.27706 | 6663 ft | 244 kts | 88° |
| 2026-05-05 08:45 | 50.23117 | 20.30223 | 6455 ft | 240 kts | 122° |
| 2026-05-05 08:45 | 50.21949 | 20.32037 | 6321 ft | 239 kts | 150° |
| 2026-05-05 08:45 | 50.20401 | 20.32920 | 6177 ft | 237 kts | 167° |
| 2026-05-05 08:45 | 50.18792 | 20.33445 | 6036 ft | 233 kts | 168° |
| 2026-05-05 08:46 | 50.17215 | 20.33641 | 5852 ft | 225 kts | 192° |
| 2026-05-05 08:46 | 50.15931 | 20.32429 | 5683 ft | 216 kts | 233° |
| 2026-05-05 08:46 | 50.15352 | 20.30361 | 5588 ft | 203 kts | 250° |
| 2026-05-05 08:46 | 50.14927 | 20.28305 | 5391 ft | 195 kts | 252° |
| 2026-05-05 08:47 | 50.14575 | 20.26311 | 5386 ft | 188 kts | 254° |
| 2026-05-05 08:47 | 50.14263 | 20.24345 | 5399 ft | 192 kts | 255° |
| 2026-05-05 08:47 | 50.13961 | 20.22324 | 5391 ft | 190 kts | 255° |
| 2026-05-05 08:47 | 50.13671 | 20.20321 | 5161 ft | 188 kts | 256° |
| 2026-05-05 08:48 | 50.13385 | 20.18330 | 4848 ft | 189 kts | 256° |
| 2026-05-05 08:48 | 50.13101 | 20.16338 | 4531 ft | 188 kts | 255° |
| 2026-05-05 08:48 | 50.12826 | 20.14358 | 4255 ft | 186 kts | 255° |
| 2026-05-05 08:48 | 50.12547 | 20.12399 | 3972 ft | 185 kts | 254° |
| 2026-05-05 08:49 | 50.12261 | 20.10446 | 3724 ft | 184 kts | 255° |
| 2026-05-05 08:49 | 50.11991 | 20.08533 | 3470 ft | 183 kts | 255° |
| 2026-05-05 08:49 | 50.11720 | 20.06611 | 3183 ft | 181 kts | 255° |
| 2026-05-05 08:49 | 50.11448 | 20.04701 | 2929 ft | 180 kts | 256° |
| 2026-05-05 08:50 | 50.11186 | 20.02819 | 2710 ft | 177 kts | 252° |
| 2026-05-05 08:50 | 50.10901 | 20.00919 | 2476 ft | 183 kts | 258° |
| 2026-05-05 08:50 | 50.10667 | 19.98942 | 2242 ft | 187 kts | 254° |
| 2026-05-05 08:50 | 50.10349 | 19.96991 | 2012 ft | 186 kts | 257° |
| 2026-05-05 08:51 | 50.10083 | 19.95059 | 1801 ft | 178 kts | 258° |
| 2026-05-05 08:51 | 50.09838 | 19.93221 | 1767 ft | 175 kts | 259° |
| 2026-05-05 08:51 | 50.09586 | 19.91333 | 1795 ft | 182 kts | 258° |
| 2026-05-05 08:51 | 50.09313 | 19.89396 | 1753 ft | 178 kts | 258° |
| 2026-05-05 08:52 | 50.09070 | 19.87646 | 1644 ft | 156 kts | 257° |
| 2026-05-05 08:52 | 50.08839 | 19.86095 | 1459 ft | 146 kts | 258° |
| 2026-05-05 08:52 | 50.08628 | 19.84505 | 1349 ft | 151 kts | 258° |
| 2026-05-05 08:52 | 50.08395 | 19.82904 | 1197 ft | 151 kts | 258° |
| 2026-05-05 08:53 | 50.08170 | 19.81310 | 990 ft | 151 kts | 258° |
| 2026-05-05 08:53 | 50.07944 | 19.79739 | 801 ft | 147 kts | 258° |
| 2026-05-05 08:53 | 50.07749 | 19.78348 | 794 ft | 106 kts | 257° |
| 2026-05-05 08:53 | 50.07639 | 19.77563 | 795 ft | 43 kts | 257° |
| 2026-05-05 08:54 | 50.07601 | 19.77292 | 797 ft | 14 kts | 253° |
| 2026-05-05 08:54 | 50.07536 | 19.77235 | 798 ft | 11 kts | 186° |
| 2026-05-05 08:54 | 50.07442 | 19.77218 | 797 ft | 15 kts | 191° |
| 2026-05-05 08:54 | 50.07358 | 19.77212 | 797 ft | 11 kts | 145° |
| 2026-05-05 08:55 | 50.07355 | 19.77322 | 797 ft | 12 kts | 78° |
| 2026-05-05 08:55 | 50.07377 | 19.77476 | 796 ft | 15 kts | 77° |
| 2026-05-05 08:55 | 50.07399 | 19.77632 | 796 ft | 14 kts | 78° |
| 2026-05-05 08:55 | 50.07423 | 19.77793 | 795 ft | 17 kts | 77° |
| 2026-05-05 08:56 | 50.07447 | 19.77968 | 795 ft | 16 kts | 79° |
| 2026-05-05 08:56 | 50.07469 | 19.78137 | 794 ft | 16 kts | 77° |
| 2026-05-05 08:56 | 50.07492 | 19.78298 | 794 ft | 15 kts | 77° |
| 2026-05-05 08:56 | 50.07513 | 19.78451 | 793 ft | 14 kts | 78° |
| 2026-05-05 08:57 | 50.07534 | 19.78599 | 793 ft | 14 kts | 78° |
| 2026-05-05 08:57 | 50.07553 | 19.78742 | 792 ft | 13 kts | 78° |
| 2026-05-05 08:57 | 50.07572 | 19.78878 | 792 ft | 13 kts | 78° |
| 2026-05-05 08:57 | 50.07591 | 19.79010 | 792 ft | 12 kts | 77° |
| 2026-05-05 08:58 | 50.07611 | 19.79158 | 791 ft | 16 kts | 78° |
| 2026-05-05 08:58 | 50.07635 | 19.79323 | 791 ft | 15 kts | 78° |
| 2026-05-05 08:58 | 50.07655 | 19.79482 | 790 ft | 15 kts | 79° |
| 2026-05-05 08:58 | 50.07663 | 19.79636 | 790 ft | 14 kts | 103° |
| 2026-05-05 08:59 | 50.07616 | 19.79766 | 789 ft | 13 kts | 124° |
| 2026-05-05 08:59 | 50.07565 | 19.79882 | 789 ft | 13 kts | 130° |
| 2026-05-05 08:59 | 50.07486 | 19.79937 | 789 ft | 13 kts | 168° |
| 2026-05-05 08:59 | 50.07403 | 19.79974 | 789 ft | 12 kts | 159° |
| 2026-05-05 09:00 | 50.07330 | 19.80007 | 789 ft | 9 kts | 167° |
| 2026-05-05 09:00 | 50.07305 | 19.80016 | 789 ft | 0 kts | 166° |